createdAt,value
2019-04-21T00:02:27.670Z,12.13
2019-04-21T00:05:22.872Z,12.14
2019-04-21T00:07:51.089Z,12.14
2019-04-21T00:10:36.424Z,12.10
2019-04-21T00:13:07.013Z,12.07
2019-04-21T00:15:34.555Z,12.04
2019-04-21T00:18:14.364Z,12.05
2019-04-21T00:20:55.189Z,12.06
2019-04-21T00:23:42.475Z,11.99
2019-04-21T00:26:24.058Z,12.04
2019-04-21T00:29:08.036Z,12.00
2019-04-21T00:31:33.913Z,12.01
2019-04-21T00:33:55.078Z,12.06
2019-04-21T00:36:43.040Z,12.00
2019-04-21T00:39:37.068Z,12.02
2019-04-21T00:42:08.634Z,11.98
2019-04-21T00:44:38.823Z,11.96
2019-04-21T00:47:27.808Z,11.89
2019-04-21T00:50:08.113Z,11.86
2019-04-21T00:53:13.082Z,11.89
2019-04-21T00:55:38.486Z,11.90
2019-04-21T00:58:18.425Z,11.84
2019-04-21T01:00:51.199Z,11.80
2019-04-21T01:03:36.183Z,11.78
2019-04-21T01:06:03.275Z,11.75
2019-04-21T01:08:44.094Z,11.72
2019-04-21T01:11:17.945Z,11.71
2019-04-21T01:14:01.108Z,11.71
2019-04-21T01:16:39.581Z,11.68
2019-04-21T01:19:14.376Z,11.73
2019-04-21T01:21:26.887Z,11.68
2019-04-21T01:24:11.803Z,11.62
2019-04-21T01:26:50.908Z,11.54
2019-04-21T01:29:41.511Z,11.58
2019-04-21T01:32:19.717Z,11.54
2019-04-21T01:34:56.073Z,11.52
2019-04-21T01:37:32.937Z,11.55
2019-04-21T01:40:14.769Z,11.50
2019-04-21T01:42:45.767Z,11.49
2019-04-21T01:45:21.847Z,11.39
2019-04-21T01:47:59.705Z,11.37
2019-04-21T01:50:36.600Z,11.34
2019-04-21T01:53:27.513Z,11.27
2019-04-21T01:56:20.592Z,11.23
2019-04-21T01:58:44.290Z,11.21
2019-04-21T02:01:33.634Z,11.15
2019-04-21T02:04:06.862Z,11.16
2019-04-21T02:06:48.898Z,11.10
2019-04-21T02:09:19.149Z,11.14
2019-04-21T02:12:01.312Z,11.14
2019-04-21T02:14:45.761Z,11.08
2019-04-21T02:17:20.406Z,11.01
2019-04-21T02:19:46.227Z,10.98
2019-04-21T02:22:35.329Z,11.00
2019-04-21T02:25:10.850Z,10.96
2019-04-21T02:27:42.982Z,10.90
2019-04-21T02:30:27.572Z,10.91
2019-04-21T02:33:17.060Z,10.90
2019-04-21T02:35:58.048Z,10.83
2019-04-21T02:41:03.948Z,10.84
2019-04-21T02:43:58.355Z,10.81
2019-04-21T02:49:46.905Z,10.73
2019-04-21T02:55:01.212Z,10.68
2019-04-21T02:57:23.021Z,10.67
2019-04-21T03:00:06.884Z,10.64
2019-04-21T03:08:33.750Z,10.61
2019-04-21T03:11:09.303Z,10.62
2019-04-21T03:13:42.177Z,10.57
2019-04-21T03:19:07.198Z,10.48
2019-04-21T03:21:34.959Z,10.44
2019-04-21T03:24:13.757Z,10.38
2019-04-21T03:26:55.825Z,10.37
2019-04-21T03:29:37.062Z,10.36
2019-04-21T03:35:18.404Z,10.35
2019-04-21T03:37:16.781Z,10.29
2019-04-21T03:39:50.790Z,10.28
2019-04-21T03:42:57.213Z,10.27
2019-04-21T03:45:06.673Z,10.23
2019-04-21T03:50:12.829Z,10.17
2019-04-21T03:52:58.889Z,10.15
2019-04-21T03:58:15.158Z,10.16
2019-04-21T04:01:05.440Z,10.14
2019-04-21T04:04:14.875Z,10.19
2019-04-21T04:07:08.169Z,10.16
2019-04-21T04:09:37.566Z,10.23
2019-04-21T04:22:48.188Z,10.23
2019-04-21T04:28:02.181Z,10.26
2019-04-21T04:30:23.674Z,10.28
2019-04-21T04:32:57.366Z,10.34
2019-04-21T04:38:30.169Z,10.39
2019-04-21T04:41:11.649Z,10.43
2019-04-21T04:46:06.683Z,10.49
2019-04-21T04:48:51.348Z,10.48
2019-04-21T04:51:33.437Z,10.47
2019-04-21T04:53:50.862Z,10.47
2019-04-21T04:56:43.464Z,10.48
2019-04-21T05:02:00.202Z,10.52
2019-04-21T05:04:39.664Z,10.58
2019-04-21T05:07:08.773Z,10.63
2019-04-21T05:09:46.864Z,10.67
2019-04-21T05:12:21.472Z,10.73
2019-04-21T05:14:59.342Z,10.76
2019-04-21T05:20:13.173Z,10.85
2019-04-21T05:22:44.305Z,10.89
2019-04-21T05:25:15.183Z,10.97
2019-04-21T05:27:50.004Z,11.05
2019-04-21T05:30:33.984Z,11.12
2019-04-21T05:33:32.171Z,11.19
2019-04-21T05:36:11.095Z,11.25
2019-04-21T05:38:43.628Z,11.30
2019-04-21T05:41:15.593Z,11.37
2019-04-21T05:44:06.871Z,11.42
2019-04-21T05:46:46.573Z,11.51
2019-04-21T05:49:36.988Z,11.57
2019-04-21T05:52:13.252Z,11.63
2019-04-21T05:54:57.453Z,11.69
2019-04-21T05:57:31.839Z,11.72
2019-04-21T06:00:00.943Z,11.78
2019-04-21T06:02:47.211Z,11.84
2019-04-21T06:08:03.118Z,11.92
2019-04-21T06:10:43.623Z,11.96
2019-04-21T06:13:24.417Z,12.04
2019-04-21T06:15:57.952Z,12.13
2019-04-21T06:18:40.360Z,12.28
2019-04-21T06:21:05.668Z,12.28
2019-04-21T06:23:42.220Z,12.39
2019-04-21T06:26:46.881Z,12.47
2019-04-21T06:29:13.483Z,12.55
2019-04-21T06:32:08.836Z,12.63
2019-04-21T06:34:08.077Z,12.73
2019-04-21T06:36:56.640Z,12.85
2019-04-21T06:39:42.676Z,12.93
2019-04-21T06:42:12.357Z,13.06
2019-04-21T06:45:01.901Z,13.18
2019-04-21T06:47:30.834Z,13.32
2019-04-21T06:50:00.444Z,13.42
2019-04-21T06:52:51.688Z,13.55
2019-04-21T06:55:19.890Z,13.65
2019-04-21T06:57:56.092Z,13.79
2019-04-21T07:00:33.087Z,13.90
2019-04-21T07:03:19.306Z,14.05
2019-04-21T07:05:57.287Z,14.32
2019-04-21T07:08:34.486Z,14.65
2019-04-21T07:11:04.341Z,15.47
2019-04-21T07:13:36.744Z,16.79
2019-04-21T07:16:21.181Z,18.23
2019-04-21T07:19:04.636Z,19.36
2019-04-21T07:21:33.786Z,20.20
2019-04-21T07:24:14.498Z,21.13
2019-04-21T07:26:51.598Z,21.72
2019-04-21T07:29:28.659Z,22.28
2019-04-21T07:32:04.512Z,22.77
2019-04-21T07:34:44.831Z,22.69
2019-04-21T07:37:20.909Z,22.76
2019-04-21T07:40:05.489Z,23.35
2019-04-21T07:42:50.014Z,23.27
2019-04-21T07:45:31.500Z,24.12
2019-04-21T07:48:19.083Z,24.21
2019-04-21T07:51:00.172Z,24.47
2019-04-21T07:53:58.391Z,24.54
2019-04-21T07:56:22.885Z,24.55
2019-04-21T07:59:11.322Z,24.07
2019-04-21T08:01:51.393Z,24.30
2019-04-21T08:04:42.355Z,24.02
2019-04-21T08:07:05.147Z,24.61
2019-04-21T08:09:51.664Z,25.46
2019-04-21T08:12:36.303Z,25.56
2019-04-21T08:15:28.777Z,25.63
2019-04-21T08:18:07.770Z,26.27
2019-04-21T08:24:18.276Z,26.01
2019-04-21T08:26:58.577Z,25.81
2019-04-21T08:29:47.689Z,25.63
2019-04-21T08:32:44.410Z,25.30
2019-04-21T08:38:18.639Z,26.03
2019-04-21T08:41:08.089Z,26.53
2019-04-21T08:43:51.887Z,26.64
2019-04-21T08:46:38.722Z,26.59
2019-04-21T08:52:45.283Z,26.25
2019-04-21T08:55:25.190Z,26.77
2019-04-21T09:01:02.418Z,27.38
2019-04-21T09:03:59.816Z,27.65
2019-04-21T09:07:04.882Z,28.05
2019-04-21T09:09:56.127Z,28.05
2019-04-21T09:12:34.599Z,28.15
2019-04-21T09:15:27.689Z,27.71
2019-04-21T09:18:04.968Z,28.13
2019-04-21T09:20:58.550Z,28.03
2019-04-21T09:23:56.466Z,28.08
2019-04-21T09:29:33.682Z,27.92
2019-04-21T09:32:22.138Z,28.05
2019-04-21T09:35:10.798Z,28.49
2019-04-21T09:44:01.725Z,29.57
2019-04-21T09:46:56.340Z,30.00
2019-04-21T09:49:49.495Z,30.03
2019-04-21T09:52:44.276Z,29.57
2019-04-21T09:55:25.051Z,29.56
2019-04-21T10:07:42.098Z,29.83
2019-04-21T10:16:21.584Z,30.49
2019-04-21T10:22:28.931Z,30.77
2019-04-21T10:25:25.101Z,31.67
2019-04-21T10:28:26.880Z,32.31
2019-04-21T10:34:53.307Z,31.60
2019-04-21T10:37:47.334Z,31.81
2019-04-21T10:43:31.189Z,31.37
2019-04-21T11:08:10.020Z,30.93
2019-04-21T11:13:50.770Z,30.58
2019-04-21T11:16:54.853Z,31.60
2019-04-21T11:19:48.651Z,31.71
2019-04-21T11:29:01.120Z,31.37
2019-04-21T11:31:54.925Z,31.74
2019-04-21T11:37:44.683Z,31.35
2019-04-21T11:43:28.491Z,31.00
2019-04-21T11:49:10.378Z,31.83
2019-04-21T11:51:48.965Z,32.27
2019-04-21T11:54:33.143Z,32.43
2019-04-21T11:57:20.579Z,32.03
2019-04-21T11:59:51.706Z,31.93
2019-04-21T12:02:37.410Z,32.78
2019-04-21T12:05:27.682Z,33.45
2019-04-21T12:11:05.198Z,33.83
2019-04-21T12:17:02.661Z,33.47
2019-04-21T12:20:10.640Z,34.05
2019-04-21T12:32:51.919Z,32.61
2019-04-21T12:52:07.156Z,33.16
2019-04-21T12:55:01.882Z,33.50
2019-04-21T12:57:50.091Z,33.90
2019-04-21T13:00:34.135Z,34.41
2019-04-21T13:03:09.920Z,33.60
2019-04-21T13:05:47.441Z,33.37
2019-04-21T13:11:23.433Z,32.86
2019-04-21T13:13:59.844Z,32.48
2019-04-21T13:16:55.141Z,31.95
2019-04-21T13:19:54.335Z,31.53
2019-04-21T13:25:38.637Z,31.67
2019-04-21T13:31:54.258Z,32.92
2019-04-21T13:47:52.687Z,31.20
2019-04-21T13:50:31.093Z,31.00
2019-04-21T13:53:06.896Z,30.65
2019-04-21T13:55:50.902Z,31.02
2019-04-21T13:59:02.276Z,31.48
2019-04-21T14:07:54.418Z,31.80
2019-04-21T14:13:58.580Z,31.62
2019-04-21T14:23:32.430Z,32.03
2019-04-21T14:26:45.778Z,32.96
2019-04-21T14:38:47.114Z,32.32
2019-04-21T14:41:28.598Z,31.51
2019-04-21T14:44:05.270Z,32.31
2019-04-21T14:53:25.733Z,31.03
2019-04-21T14:56:07.240Z,30.08
2019-04-21T14:58:55.906Z,30.76
2019-04-21T15:01:37.826Z,31.70
2019-04-21T15:04:17.194Z,31.20
2019-04-21T15:07:05.619Z,31.85
2019-04-21T15:13:13.953Z,30.98
2019-04-21T15:16:20.631Z,31.92
2019-04-21T15:32:15.025Z,30.66
2019-04-21T15:34:52.027Z,30.58
2019-04-21T15:37:31.660Z,30.48
2019-04-21T15:56:45.151Z,29.94
2019-04-21T16:09:00.844Z,29.88
2019-04-21T16:14:56.621Z,28.31
2019-04-21T16:17:35.209Z,28.86
2019-04-21T16:20:12.221Z,28.94
2019-04-21T16:22:50.685Z,28.63
2019-04-21T16:34:21.988Z,28.12
2019-04-21T16:37:03.682Z,27.77
2019-04-21T16:39:57.564Z,27.50
2019-04-21T16:49:09.630Z,27.20
2019-04-21T16:52:16.295Z,26.81
2019-04-21T16:55:17.341Z,26.91
2019-04-21T17:01:32.363Z,26.03
2019-04-21T17:04:13.584Z,25.85
2019-04-21T17:06:55.385Z,25.56
2019-04-21T17:09:34.694Z,25.13
2019-04-21T17:12:14.639Z,24.86
2019-04-21T17:15:10.721Z,24.62
2019-04-21T17:18:02.003Z,24.28
2019-04-21T17:20:35.735Z,23.95
2019-04-21T17:23:01.800Z,23.57
2019-04-21T17:26:00.903Z,23.15
2019-04-21T17:28:38.770Z,22.66
2019-04-21T17:31:18.178Z,22.34
2019-04-21T17:34:11.620Z,22.03
2019-04-21T17:36:43.162Z,21.80
2019-04-21T17:39:24.908Z,21.69
2019-04-21T17:42:16.726Z,21.56
2019-04-21T17:44:43.311Z,21.39
2019-04-21T17:47:34.145Z,21.24
2019-04-21T17:50:17.763Z,21.04
2019-04-21T17:53:00.786Z,20.82
2019-04-21T17:55:42.662Z,20.59
2019-04-21T17:58:33.582Z,20.50
2019-04-21T18:01:39.303Z,20.42
2019-04-21T18:04:18.206Z,20.33
2019-04-21T18:06:58.170Z,20.15
2019-04-21T18:09:56.393Z,20.05
2019-04-21T18:12:31.857Z,19.91
2019-04-21T18:15:24.451Z,19.79
2019-04-21T18:17:45.017Z,19.67
2019-04-21T18:20:30.099Z,19.60
2019-04-21T18:23:27.358Z,19.52
2019-04-21T18:26:00.221Z,19.48
2019-04-21T18:28:31.013Z,19.38
2019-04-21T18:31:10.202Z,19.27
2019-04-21T18:33:49.294Z,19.33
2019-04-21T18:36:32.161Z,19.31
2019-04-21T18:39:21.980Z,19.28
2019-04-21T18:42:09.298Z,19.23
2019-04-21T18:44:58.369Z,19.12
2019-04-21T18:47:31.995Z,19.07
2019-04-21T18:49:50.346Z,18.94
2019-04-21T18:52:45.381Z,18.88
2019-04-21T18:55:20.273Z,18.91
2019-04-21T18:57:50.885Z,18.79
2019-04-21T19:00:30.851Z,18.72
2019-04-21T19:03:04.105Z,18.66
2019-04-21T19:05:45.792Z,18.56
2019-04-21T19:08:31.477Z,18.54
2019-04-21T19:11:13.676Z,18.50
2019-04-21T19:14:20.801Z,18.34
2019-04-21T19:16:49.604Z,18.31
2019-04-21T19:19:39.172Z,18.25
2019-04-21T19:22:00.081Z,18.25
2019-04-21T19:24:41.339Z,18.19
2019-04-21T19:27:17.722Z,18.07
2019-04-21T19:32:29.259Z,17.91
2019-04-21T19:34:58.189Z,17.84
2019-04-21T19:37:38.332Z,17.87
2019-04-21T19:40:29.055Z,17.81
2019-04-21T19:42:55.738Z,17.66
2019-04-21T19:45:34.238Z,17.60
2019-04-21T19:48:15.006Z,17.59
2019-04-21T19:50:58.901Z,17.46
2019-04-21T19:53:25.490Z,17.42
2019-04-21T19:55:50.016Z,17.35
2019-04-21T19:58:32.122Z,17.29
2019-04-21T20:01:03.532Z,17.28
2019-04-21T20:03:49.838Z,17.21
2019-04-21T20:06:42.086Z,17.24
2019-04-21T20:09:17.857Z,17.18
2019-04-21T20:11:55.049Z,17.21
2019-04-21T20:17:06.395Z,17.03
2019-04-21T20:19:27.927Z,16.98
2019-04-21T20:22:03.231Z,16.94
2019-04-21T20:24:40.039Z,16.86
2019-04-21T20:27:24.150Z,16.83
2019-04-21T20:30:10.890Z,16.80
2019-04-21T20:32:48.901Z,16.77
2019-04-21T20:35:32.326Z,16.64
2019-04-21T20:38:00.390Z,16.50
2019-04-21T20:40:35.869Z,16.46
2019-04-21T20:43:26.964Z,16.39
2019-04-21T20:45:59.273Z,16.32
2019-04-21T20:48:22.115Z,16.27
2019-04-21T20:51:18.262Z,16.20
2019-04-21T20:53:46.465Z,16.10
2019-04-21T20:56:17.050Z,15.97
2019-04-21T20:59:01.547Z,15.92
2019-04-21T21:01:41.436Z,15.80
2019-04-21T21:04:12.386Z,15.78
2019-04-21T21:06:47.145Z,15.73
2019-04-21T21:09:28.106Z,15.65
2019-04-21T21:14:42.145Z,15.54
2019-04-21T21:17:35.149Z,15.52
2019-04-21T21:19:59.622Z,15.49
2019-04-21T21:22:33.191Z,15.46
2019-04-21T21:25:18.759Z,15.40
2019-04-21T21:27:41.835Z,15.33
2019-04-21T21:30:22.709Z,15.25
2019-04-21T21:33:00.793Z,15.21
2019-04-21T21:35:35.937Z,15.19
2019-04-21T21:38:19.736Z,15.21
2019-04-21T21:40:51.410Z,15.16
2019-04-21T21:43:21.143Z,15.17
2019-04-21T21:45:57.397Z,15.17
2019-04-21T21:48:40.846Z,15.10
2019-04-21T21:51:16.658Z,15.10
2019-04-21T21:53:44.374Z,15.02
2019-04-21T21:56:20.621Z,14.98
2019-04-21T21:58:57.085Z,14.87
2019-04-21T22:01:38.906Z,14.90
2019-04-21T22:04:18.452Z,14.81
2019-04-21T22:06:55.360Z,14.76
2019-04-21T22:09:24.238Z,14.65
2019-04-21T22:12:04.402Z,14.62
2019-04-21T22:14:44.684Z,14.61
2019-04-21T22:17:30.024Z,14.49
2019-04-21T22:20:13.387Z,14.48
2019-04-21T22:22:41.921Z,14.44
2019-04-21T22:25:13.849Z,14.44
2019-04-21T22:27:45.408Z,14.35
2019-04-21T22:30:30.016Z,14.28
2019-04-21T22:33:04.532Z,14.27
2019-04-21T22:35:42.668Z,14.25
2019-04-21T22:38:29.625Z,14.14
2019-04-21T22:41:00.235Z,14.21
2019-04-21T22:43:34.961Z,14.20
2019-04-21T22:46:05.345Z,14.18
2019-04-21T22:48:45.275Z,14.16
2019-04-21T22:51:27.801Z,14.04
2019-04-21T22:53:57.981Z,14.01
2019-04-21T22:56:35.709Z,14.06
2019-04-21T22:59:15.959Z,14.04
2019-04-21T23:01:50.798Z,13.97
2019-04-21T23:04:35.871Z,14.02
2019-04-21T23:07:11.259Z,13.94
2019-04-21T23:09:40.492Z,13.90
2019-04-21T23:12:22.876Z,13.78
2019-04-21T23:15:03.379Z,13.78
2019-04-21T23:17:50.208Z,13.77
2019-04-21T23:20:34.447Z,13.69
2019-04-21T23:23:12.074Z,13.65
2019-04-21T23:25:40.498Z,13.60
2019-04-21T23:28:17.695Z,13.55
2019-04-21T23:31:00.826Z,13.56
2019-04-21T23:33:16.534Z,13.47
2019-04-21T23:35:59.122Z,13.40
2019-04-21T23:38:38.794Z,13.37
2019-04-21T23:41:09.569Z,13.34
2019-04-21T23:43:44.756Z,13.30
2019-04-21T23:46:26.090Z,13.29
2019-04-21T23:49:12.658Z,13.25
2019-04-21T23:51:43.495Z,13.21
2019-04-21T23:54:11.398Z,13.23
2019-04-21T23:56:47.814Z,13.22
2019-04-21T23:59:24.698Z,13.21
